Alvaraes, Brazil
Current Conditions -  °F | °C
As of 7:00 PM on Sunday 21 Dec 2014 (Local Time) from SBTF Reporting Station
Clear Clear  
Wind Chill: 86°   Ceiling: Unl
Heat Index: 99°   Visibility: 6mi
Dew Point: 79°   Wind: 0mph
Humidity: 79%   Direction: NA
Pressure: 29.74"   Gusts: NA
Location:  3.2°S, 64.82°W
Report Text: SBTF 212300Z 00000KT CAVOK 30/26 Q1007
Loading
Personal Weather Stations






























Interactive Weather Map New forecast layout! Learn more

10-Day Weather Forecast

Advertisements
Track Severe Weather on mobile